Laquey, Missouri
Current Conditions -  °F | °C
As of 3:58 AM on Wednesday 26 Nov 2014 (Local Time) from KTBN Reporting Station
Overcast Overcast  
Wind Chill: 19°   Ceiling: 11000
Heat Index: 28°   Visibility: 10mi
Dew Point: 21°   Wind: 8mph
Humidity: 77%   Direction: 140°SE
Pressure: 30"   Gusts: NA
Location:  37.77°N, 92.3°W
Report Text: KTBN 260958Z AUTO 14007KT 10SM BKN110 OVC140 M02/M06 A3000 RMK AO2 SLP171 T10251061
Loading
Personal Weather Stations






























Interactive Weather Map New forecast layout! Learn more

10-Day Weather Forecast

Advertisements
Track Severe Weather on mobile